Decatur Airport
KDEC : now visible

Airfield :











YOU CAN JOIN US ON...

 
LOGIN :

Register | Disclaimer

   EN    FR    IT 

 









Legend :    VFR   Marginal VFR   IFR   Intensive IFR   Very Intensive IFR
Visi :
Ceiling :
>= 8 km
>= 3000ft
5 to 8 km
1000 to 3000 ft
1500m to 5 km
500 to 1000 ft
800 to 1500m
200 to 500 ft
< 800m
< 200 ft
Symbols :   Thunderstorms  Fog  Heavy snow  Heavy precipitations  Wind > 20 kt






- Airport Elevation : 682 ft
- IATA code : DEC


KDEC - Decatur

CURRENT METAR :
  • 151354Z 20010KT 2 1/2SM -SN BR BKN018 OVC027 01/M01 A2944

EXPIRED METARs :
  • 151254Z 20010KT 10SM SCT023 BKN028 OVC037 01/M01 A2945
  • 151154Z 21010KT 9SM SCT030 BKN038 OVC060 01/M01 A2945

TAF KDEC
Valid from the 15 at 15:00 until the 16 at 12:00 UTC


151451Z 1515/1612 21010G18KT P6SM VCSH OVC015
TEMPO 1515/1517 1SM -SHSN
FM151700 21010KT 4SM -SHSN OVC012
TEMPO 1518/1522 1SM -SHSN OVC008
FM160000 17003KT P6SM VCSH OVC012
FM160300 VRB03KT P6SM OVC015
FM161000 30005KT P6SM OVC012
KZKC FIR / North America



MET'MAP, your aeronautical weather chart ! - Copyright ORBIFLY December 2007 - Disclaimer

ORBIFLY MET'MAP TEAM :

Programming & Development : Alexandra Zaïnal
Concept & original design : Baudouin d'Aumeries
Assistance for programming : Marc-Olivier Méhu
Technical & hardware support : Manuel Goepfert

Contact : metmap@orbifly.com




SOURCES & CREDITS :

   NOAA       Earth
Advisory